sensor_id;sensor_type;location;lat;lon;timestamp;pressure;altitude;pressure_sealevel;temperature;humidity
34742;BME280;20968;42.696;23.360;2022-08-02T00:02:16;95101.88;;;22.20;53.31
34742;BME280;20968;42.696;23.360;2022-08-02T00:04:41;95101.16;;;22.27;53.49
34742;BME280;20968;42.696;23.360;2022-08-02T00:07:07;95099.91;;;22.35;53.61
34742;BME280;20968;42.696;23.360;2022-08-02T00:09:32;95098.22;;;22.32;53.65
34742;BME280;20968;42.696;23.360;2022-08-02T00:11:57;95103.03;;;22.24;53.83
34742;BME280;20968;42.696;23.360;2022-08-02T00:14:23;95095.59;;;21.92;55.07
34742;BME280;20968;42.696;23.360;2022-08-02T00:16:48;95088.03;;;21.44;55.62
34742;BME280;20968;42.696;23.360;2022-08-02T00:19:14;95103.50;;;21.37;56.35
34742;BME280;20968;42.696;23.360;2022-08-02T00:21:39;95093.13;;;21.25;56.46
34742;BME280;20968;42.696;23.360;2022-08-02T00:24:05;95094.50;;;21.31;56.25
34742;BME280;20968;42.696;23.360;2022-08-02T00:26:31;95094.78;;;21.20;56.42
34742;BME280;20968;42.696;23.360;2022-08-02T00:28:56;95087.31;;;21.23;56.26
34742;BME280;20968;42.696;23.360;2022-08-02T00:31:22;95095.94;;;21.25;56.14
34742;BME280;20968;42.696;23.360;2022-08-02T00:33:47;95097.44;;;21.26;56.61
34742;BME280;20968;42.696;23.360;2022-08-02T00:38:38;95084.38;;;21.28;56.30
34742;BME280;20968;42.696;23.360;2022-08-02T00:41:11;95095.16;;;21.45;56.09
34742;BME280;20968;42.696;23.360;2022-08-02T00:43:36;95088.84;;;21.52;55.50
34742;BME280;20968;42.696;23.360;2022-08-02T00:46:02;95100.31;;;21.61;55.66
34742;BME280;20968;42.696;23.360;2022-08-02T00:48:27;95090.25;;;21.66;55.68
34742;BME280;20968;42.696;23.360;2022-08-02T00:50:52;95095.88;;;21.73;55.69
34742;BME280;20968;42.696;23.360;2022-08-02T00:53:18;95095.00;;;21.78;55.29
34742;BME280;20968;42.696;23.360;2022-08-02T00:55:43;95093.28;;;21.75;55.00
34742;BME280;20968;42.696;23.360;2022-08-02T00:58:09;95088.75;;;21.72;55.45
34742;BME280;20968;42.696;23.360;2022-08-02T01:00:34;95091.03;;;21.74;54.69
34742;BME280;20968;42.696;23.360;2022-08-02T01:03:00;95085.72;;;21.55;54.32
34742;BME280;20968;42.696;23.360;2022-08-02T01:05:27;95080.78;;;21.48;54.27
34742;BME280;20968;42.696;23.360;2022-08-02T01:07:52;95093.59;;;21.64;54.27
34742;BME280;20968;42.696;23.360;2022-08-02T01:10:17;95081.47;;;21.41;54.60
34742;BME280;20968;42.696;23.360;2022-08-02T01:12:43;95089.13;;;21.41;54.71
34742;BME280;20968;42.696;23.360;2022-08-02T01:15:10;95092.66;;;21.41;54.98
34742;BME280;20968;42.696;23.360;2022-08-02T01:17:53;95097.19;;;21.44;54.83
34742;BME280;20968;42.696;23.360;2022-08-02T01:31:09;95084.34;;;21.21;54.15
34742;BME280;20968;42.696;23.360;2022-08-02T01:33:47;95086.50;;;21.15;54.12
34742;BME280;20968;42.696;23.360;2022-08-02T01:36:17;95089.38;;;21.22;53.97
34742;BME280;20968;42.696;23.360;2022-08-02T01:38:47;95087.97;;;21.09;53.89
34742;BME280;20968;42.696;23.360;2022-08-02T01:41:18;95096.78;;;21.13;54.31
34742;BME280;20968;42.696;23.360;2022-08-02T01:43:45;95095.28;;;21.12;54.18
34742;BME280;20968;42.696;23.360;2022-08-02T01:46:12;95091.44;;;21.22;54.50
34742;BME280;20968;42.696;23.360;2022-08-02T01:48:40;95084.00;;;21.24;54.82
34742;BME280;20968;42.696;23.360;2022-08-02T01:51:10;95091.84;;;21.26;54.90
34742;BME280;20968;42.696;23.360;2022-08-02T01:53:37;95087.22;;;21.08;54.98
34742;BME280;20968;42.696;23.360;2022-08-02T01:56:04;95097.13;;;21.09;54.82
34742;BME280;20968;42.696;23.360;2022-08-02T01:58:34;95095.72;;;20.95;55.16
34742;BME280;20968;42.696;23.360;2022-08-02T02:01:00;95091.34;;;20.87;55.11
34742;BME280;20968;42.696;23.360;2022-08-02T02:03:28;95099.06;;;20.94;55.33
34742;BME280;20968;42.696;23.360;2022-08-02T02:05:55;95086.75;;;20.97;55.27
34742;BME280;20968;42.696;23.360;2022-08-02T02:08:33;95092.44;;;21.04;54.93
34742;BME280;20968;42.696;23.360;2022-08-02T02:11:01;95089.28;;;21.08;54.25
34742;BME280;20968;42.696;23.360;2022-08-02T02:13:28;95092.22;;;21.02;54.83
34742;BME280;20968;42.696;23.360;2022-08-02T02:15:55;95086.25;;;21.06;54.65
34742;BME280;20968;42.696;23.360;2022-08-02T02:18:23;95091.72;;;21.11;54.30
34742;BME280;20968;42.696;23.360;2022-08-02T02:20:50;95094.66;;;21.06;54.46
34742;BME280;20968;42.696;23.360;2022-08-02T02:23:16;95098.75;;;21.05;53.85
34742;BME280;20968;42.696;23.360;2022-08-02T02:25:42;95089.38;;;20.95;54.41
34742;BME280;20968;42.696;23.360;2022-08-02T02:28:12;95095.38;;;20.99;54.34
34742;BME280;20968;42.696;23.360;2022-08-02T02:30:41;95098.59;;;20.82;54.24
34742;BME280;20968;42.696;23.360;2022-08-02T02:33:07;95090.38;;;20.64;54.54
34742;BME280;20968;42.696;23.360;2022-08-02T02:35:35;95096.97;;;20.74;54.45
34742;BME280;20968;42.696;23.360;2022-08-02T02:38:03;95095.28;;;20.71;54.65
34742;BME280;20968;42.696;23.360;2022-08-02T02:40:30;95091.38;;;20.74;55.30
34742;BME280;20968;42.696;23.360;2022-08-02T02:42:58;95092.88;;;20.75;55.45
34742;BME280;20968;42.696;23.360;2022-08-02T02:45:25;95096.31;;;20.81;55.69
34742;BME280;20968;42.696;23.360;2022-08-02T02:47:54;95092.16;;;20.74;55.38
34742;BME280;20968;42.696;23.360;2022-08-02T02:50:20;95093.94;;;20.85;55.32
34742;BME280;20968;42.696;23.360;2022-08-02T02:52:46;95102.56;;;20.87;55.62
34742;BME280;20968;42.696;23.360;2022-08-02T02:55:13;95097.66;;;20.80;55.05
34742;BME280;20968;42.696;23.360;2022-08-02T02:57:39;95109.25;;;20.84;55.29
34742;BME280;20968;42.696;23.360;2022-08-02T03:00:09;95097.44;;;20.78;55.53
34742;BME280;20968;42.696;23.360;2022-08-02T03:02:39;95103.25;;;20.80;55.69
34742;BME280;20968;42.696;23.360;2022-08-02T03:05:06;95090.72;;;20.81;55.90
34742;BME280;20968;42.696;23.360;2022-08-02T03:07:33;95097.84;;;20.82;55.54
34742;BME280;20968;42.696;23.360;2022-08-02T03:09:59;95096.97;;;20.74;55.82
34742;BME280;20968;42.696;23.360;2022-08-02T03:12:26;95098.09;;;20.71;55.80
34742;BME280;20968;42.696;23.360;2022-08-02T03:14:53;95098.19;;;20.78;56.44
34742;BME280;20968;42.696;23.360;2022-08-02T03:17:18;95104.00;;;20.80;55.80
34742;BME280;20968;42.696;23.360;2022-08-02T03:19:44;95102.59;;;20.74;54.90
34742;BME280;20968;42.696;23.360;2022-08-02T03:22:10;95096.09;;;20.58;55.32
34742;BME280;20968;42.696;23.360;2022-08-02T03:24:36;95091.41;;;20.53;55.41
34742;BME280;20968;42.696;23.360;2022-08-02T03:27:01;95092.75;;;20.60;55.31
34742;BME280;20968;42.696;23.360;2022-08-02T03:29:27;95099.03;;;20.53;55.24
34742;BME280;20968;42.696;23.360;2022-08-02T03:31:53;95098.81;;;20.51;55.52
34742;BME280;20968;42.696;23.360;2022-08-02T03:34:19;95103.59;;;20.43;56.08
34742;BME280;20968;42.696;23.360;2022-08-02T03:36:47;95104.03;;;20.47;56.07
34742;BME280;20968;42.696;23.360;2022-08-02T03:39:14;95100.78;;;20.43;56.25
34742;BME280;20968;42.696;23.360;2022-08-02T03:41:40;95106.47;;;20.50;56.40
34742;BME280;20968;42.696;23.360;2022-08-02T03:44:07;95115.16;;;20.60;56.74
34742;BME280;20968;42.696;23.360;2022-08-02T03:46:33;95111.47;;;20.65;56.89
34742;BME280;20968;42.696;23.360;2022-08-02T03:49:03;95117.13;;;20.72;56.34
34742;BME280;20968;42.696;23.360;2022-08-02T03:51:29;95110.16;;;20.79;56.01
34742;BME280;20968;42.696;23.360;2022-08-02T03:53:55;95103.91;;;20.73;55.76
34742;BME280;20968;42.696;23.360;2022-08-02T03:56:21;95108.03;;;20.59;56.19
34742;BME280;20968;42.696;23.360;2022-08-02T03:58:47;95108.72;;;20.52;56.29
34742;BME280;20968;42.696;23.360;2022-08-02T04:01:12;95113.16;;;20.47;56.30
34742;BME280;20968;42.696;23.360;2022-08-02T04:03:37;95127.78;;;20.53;56.49
34742;BME280;20968;42.696;23.360;2022-08-02T04:06:03;95127.69;;;20.46;56.23
34742;BME280;20968;42.696;23.360;2022-08-02T04:08:28;95129.59;;;20.51;55.67
34742;BME280;20968;42.696;23.360;2022-08-02T04:10:54;95133.97;;;20.39;55.81
34742;BME280;20968;42.696;23.360;2022-08-02T04:13:37;95140.13;;;20.37;56.03
34742;BME280;20968;42.696;23.360;2022-08-02T04:16:19;95142.81;;;20.30;55.96
34742;BME280;20968;42.696;23.360;2022-08-02T04:18:50;95142.06;;;20.30;56.20
34742;BME280;20968;42.696;23.360;2022-08-02T04:21:19;95145.22;;;20.46;57.00
34742;BME280;20968;42.696;23.360;2022-08-02T04:23:47;95129.81;;;20.53;55.67
34742;BME280;20968;42.696;23.360;2022-08-02T04:26:13;95145.31;;;20.54;55.68
34742;BME280;20968;42.696;23.360;2022-08-02T04:28:40;95146.53;;;20.45;56.07
34742;BME280;20968;42.696;23.360;2022-08-02T04:31:06;95139.56;;;20.39;55.78
34742;BME280;20968;42.696;23.360;2022-08-02T04:33:33;95130.28;;;20.44;55.48
34742;BME280;20968;42.696;23.360;2022-08-02T04:35:59;95138.28;;;20.40;55.37
34742;BME280;20968;42.696;23.360;2022-08-02T04:38:25;95137.50;;;20.39;55.27
34742;BME280;20968;42.696;23.360;2022-08-02T04:40:52;95138.06;;;20.38;55.96
34742;BME280;20968;42.696;23.360;2022-08-02T04:43:18;95134.59;;;20.45;55.54
34742;BME280;20968;42.696;23.360;2022-08-02T04:45:46;95136.38;;;20.55;55.54
34742;BME280;20968;42.696;23.360;2022-08-02T04:48:12;95139.81;;;20.61;56.00
34742;BME280;20968;42.696;23.360;2022-08-02T04:50:37;95140.78;;;20.51;55.87
34742;BME280;20968;42.696;23.360;2022-08-02T04:53:03;95149.34;;;20.79;55.79
34742;BME280;20968;42.696;23.360;2022-08-02T04:55:28;95148.72;;;20.93;55.94
34742;BME280;20968;42.696;23.360;2022-08-02T04:57:54;95149.25;;;21.12;55.26
34742;BME280;20968;42.696;23.360;2022-08-02T05:00:20;95152.28;;;21.14;53.74
34742;BME280;20968;42.696;23.360;2022-08-02T05:02:46;95139.00;;;20.94;54.42
34742;BME280;20968;42.696;23.360;2022-08-02T05:05:12;95141.75;;;21.07;54.88
34742;BME280;20968;42.696;23.360;2022-08-02T05:07:37;95140.84;;;21.12;54.75
34742;BME280;20968;42.696;23.360;2022-08-02T05:10:03;95149.38;;;21.27;54.89
34742;BME280;20968;42.696;23.360;2022-08-02T05:12:29;95150.22;;;21.42;54.76
34742;BME280;20968;42.696;23.360;2022-08-02T05:14:54;95156.59;;;21.43;55.27
34742;BME280;20968;42.696;23.360;2022-08-02T05:17:20;95156.19;;;21.59;54.66
34742;BME280;20968;42.696;23.360;2022-08-02T05:19:45;95154.97;;;21.75;54.01
34742;BME280;20968;42.696;23.360;2022-08-02T05:22:11;95150.00;;;21.89;53.01
34742;BME280;20968;42.696;23.360;2022-08-02T05:24:36;95162.03;;;22.04;53.19
34742;BME280;20968;42.696;23.360;2022-08-02T05:27:01;95157.41;;;22.14;53.16
34742;BME280;20968;42.696;23.360;2022-08-02T05:29:27;95164.91;;;22.11;53.18
34742;BME280;20968;42.696;23.360;2022-08-02T05:31:52;95158.00;;;22.20;53.31
34742;BME280;20968;42.696;23.360;2022-08-02T05:34:18;95160.53;;;22.38;52.30
34742;BME280;20968;42.696;23.360;2022-08-02T05:36:44;95164.66;;;22.37;51.55
34742;BME280;20968;42.696;23.360;2022-08-02T05:39:10;95166.19;;;22.46;52.35
34742;BME280;20968;42.696;23.360;2022-08-02T05:41:35;95165.22;;;22.36;52.11
34742;BME280;20968;42.696;23.360;2022-08-02T05:44:01;95169.41;;;22.57;51.46
34742;BME280;20968;42.696;23.360;2022-08-02T05:46:27;95175.56;;;22.56;50.88
34742;BME280;20968;42.696;23.360;2022-08-02T05:48:52;95169.94;;;22.56;52.15
34742;BME280;20968;42.696;23.360;2022-08-02T05:51:39;95167.59;;;22.74;52.11
34742;BME280;20968;42.696;23.360;2022-08-02T05:54:19;95182.03;;;22.93;50.83
34742;BME280;20968;42.696;23.360;2022-08-02T06:02:34;95181.47;;;23.02;51.98
34742;BME280;20968;42.696;23.360;2022-08-02T06:05:11;95182.28;;;23.25;51.48
34742;BME280;20968;42.696;23.360;2022-08-02T06:07:41;95183.25;;;23.57;49.58
34742;BME280;20968;42.696;23.360;2022-08-02T06:10:08;95187.16;;;23.77;50.38
34742;BME280;20968;42.696;23.360;2022-08-02T06:12:42;95189.03;;;23.97;49.84
34742;BME280;20968;42.696;23.360;2022-08-02T06:15:12;95195.75;;;24.16;47.00
34742;BME280;20968;42.696;23.360;2022-08-02T06:17:39;95178.06;;;24.23;48.51
34742;BME280;20968;42.696;23.360;2022-08-02T06:20:05;95188.53;;;24.52;47.87
34742;BME280;20968;42.696;23.360;2022-08-02T06:22:33;95190.38;;;24.57;48.07
34742;BME280;20968;42.696;23.360;2022-08-02T06:25:00;95189.09;;;24.83;47.81
34742;BME280;20968;42.696;23.360;2022-08-02T06:27:26;95195.19;;;25.11;47.17
34742;BME280;20968;42.696;23.360;2022-08-02T06:29:53;95196.22;;;25.23;46.50
34742;BME280;20968;42.696;23.360;2022-08-02T06:32:20;95195.94;;;25.36;46.36
34742;BME280;20968;42.696;23.360;2022-08-02T06:34:46;95200.50;;;25.56;45.01
34742;BME280;20968;42.696;23.360;2022-08-02T06:37:30;95200.50;;;25.56;44.90
34742;BME280;20968;42.696;23.360;2022-08-02T06:40:13;95191.53;;;25.67;44.50
34742;BME280;20968;42.696;23.360;2022-08-02T06:43:05;95209.19;;;25.50;43.32
34742;BME280;20968;42.696;23.360;2022-08-02T06:45:35;95204.56;;;25.38;43.81
34742;BME280;20968;42.696;23.360;2022-08-02T06:48:01;95193.28;;;25.38;44.43
34742;BME280;20968;42.696;23.360;2022-08-02T06:50:27;95191.41;;;25.09;43.89
34742;BME280;20968;42.696;23.360;2022-08-02T06:52:53;95198.19;;;25.06;43.88
34742;BME280;20968;42.696;23.360;2022-08-02T06:55:18;95197.09;;;25.01;42.84
34742;BME280;20968;42.696;23.360;2022-08-02T06:57:44;95196.75;;;24.97;43.71
34742;BME280;20968;42.696;23.360;2022-08-02T07:00:09;95195.31;;;24.81;44.23
34742;BME280;20968;42.696;23.360;2022-08-02T07:02:37;95189.16;;;24.75;43.52
34742;BME280;20968;42.696;23.360;2022-08-02T07:05:04;95192.00;;;24.68;43.14
34742;BME280;20968;42.696;23.360;2022-08-02T07:07:31;95187.81;;;24.76;44.92
34742;BME280;20968;42.696;23.360;2022-08-02T07:09:57;95186.97;;;24.98;42.92
34742;BME280;20968;42.696;23.360;2022-08-02T07:12:23;95192.38;;;25.04;42.30
34742;BME280;20968;42.696;23.360;2022-08-02T07:14:48;95195.19;;;25.04;43.02
34742;BME280;20968;42.696;23.360;2022-08-02T07:17:14;95194.41;;;25.11;41.45
34742;BME280;20968;42.696;23.360;2022-08-02T07:19:39;95201.94;;;25.08;41.11
34742;BME280;20968;42.696;23.360;2022-08-02T07:22:04;95189.53;;;25.04;41.39
34742;BME280;20968;42.696;23.360;2022-08-02T07:24:30;95189.59;;;24.96;42.49
34742;BME280;20968;42.696;23.360;2022-08-02T07:26:56;95188.22;;;25.05;41.46
34742;BME280;20968;42.696;23.360;2022-08-02T07:29:22;95185.16;;;25.17;43.13
34742;BME280;20968;42.696;23.360;2022-08-02T07:31:48;95189.72;;;25.37;42.29
34742;BME280;20968;42.696;23.360;2022-08-02T07:34:13;95187.78;;;25.47;41.45
34742;BME280;20968;42.696;23.360;2022-08-02T07:36:39;95189.25;;;25.48;41.94
34742;BME280;20968;42.696;23.360;2022-08-02T07:39:04;95186.22;;;25.54;41.21
34742;BME280;20968;42.696;23.360;2022-08-02T07:41:29;95182.25;;;25.57;41.32
34742;BME280;20968;42.696;23.360;2022-08-02T07:43:55;95184.97;;;25.64;40.75
34742;BME280;20968;42.696;23.360;2022-08-02T07:46:20;95184.31;;;25.81;40.89
34742;BME280;20968;42.696;23.360;2022-08-02T07:48:46;95186.59;;;25.99;41.22
34742;BME280;20968;42.696;23.360;2022-08-02T07:51:13;95186.50;;;26.23;40.17
34742;BME280;20968;42.696;23.360;2022-08-02T07:53:38;95180.50;;;26.36;40.82
34742;BME280;20968;42.696;23.360;2022-08-02T07:56:03;95184.13;;;26.54;39.91
34742;BME280;20968;42.696;23.360;2022-08-02T07:58:29;95186.03;;;26.51;39.76
34742;BME280;20968;42.696;23.360;2022-08-02T08:00:54;95189.97;;;26.39;39.16
34742;BME280;20968;42.696;23.360;2022-08-02T08:03:20;95191.19;;;26.45;38.98
34742;BME280;20968;42.696;23.360;2022-08-02T08:05:46;95190.84;;;26.58;39.55
34742;BME280;20968;42.696;23.360;2022-08-02T08:08:11;95187.28;;;26.58;39.55
34742;BME280;20968;42.696;23.360;2022-08-02T08:10:39;95182.34;;;26.75;39.40
34742;BME280;20968;42.696;23.360;2022-08-02T08:13:04;95178.16;;;26.93;39.04
34742;BME280;20968;42.696;23.360;2022-08-02T08:15:30;95188.09;;;26.68;39.07
34742;BME280;20968;42.696;23.360;2022-08-02T08:17:56;95180.69;;;26.72;39.37
34742;BME280;20968;42.696;23.360;2022-08-02T08:20:21;95182.03;;;26.71;39.73
34742;BME280;20968;42.696;23.360;2022-08-02T08:22:47;95186.34;;;26.72;38.98
34742;BME280;20968;42.696;23.360;2022-08-02T08:25:12;95182.50;;;26.77;39.33
34742;BME280;20968;42.696;23.360;2022-08-02T08:27:46;95181.13;;;26.95;39.05
34742;BME280;20968;42.696;23.360;2022-08-02T08:30:12;95183.44;;;27.06;39.71
34742;BME280;20968;42.696;23.360;2022-08-02T08:32:37;95181.44;;;27.16;39.08
34742;BME280;20968;42.696;23.360;2022-08-02T08:35:03;95178.84;;;27.37;38.44
34742;BME280;20968;42.696;23.360;2022-08-02T08:37:36;95177.03;;;27.32;38.11
34742;BME280;20968;42.696;23.360;2022-08-02T08:40:06;95172.28;;;27.34;38.92
34742;BME280;20968;42.696;23.360;2022-08-02T08:42:35;95181.72;;;27.46;39.49
34742;BME280;20968;42.696;23.360;2022-08-02T08:45:03;95184.59;;;27.56;38.71
34742;BME280;20968;42.696;23.360;2022-08-02T08:47:39;95184.50;;;27.63;39.25
34742;BME280;20968;42.696;23.360;2022-08-02T08:52:35;95186.22;;;27.58;38.91
34742;BME280;20968;42.696;23.360;2022-08-02T08:55:03;95179.00;;;27.74;39.29
34742;BME280;20968;42.696;23.360;2022-08-02T08:57:29;95171.16;;;27.92;38.61
34742;BME280;20968;42.696;23.360;2022-08-02T08:59:56;95171.94;;;28.11;38.80
34742;BME280;20968;42.696;23.360;2022-08-02T09:02:22;95171.25;;;28.48;38.61
34742;BME280;20968;42.696;23.360;2022-08-02T09:04:48;95174.53;;;28.73;36.51
34742;BME280;20968;42.696;23.360;2022-08-02T09:07:14;95170.94;;;28.73;36.23
34742;BME280;20968;42.696;23.360;2022-08-02T09:09:39;95171.25;;;28.86;37.38
34742;BME280;20968;42.696;23.360;2022-08-02T09:12:15;95166.59;;;28.72;36.53
34742;BME280;20968;42.696;23.360;2022-08-02T09:14:41;95159.75;;;28.56;36.71
34742;BME280;20968;42.696;23.360;2022-08-02T09:17:08;95163.03;;;28.81;37.23
34742;BME280;20968;42.696;23.360;2022-08-02T09:19:34;95168.09;;;28.92;36.26
34742;BME280;20968;42.696;23.360;2022-08-02T09:22:06;95166.84;;;29.14;36.61
34742;BME280;20968;42.696;23.360;2022-08-02T09:24:49;95157.69;;;29.34;36.32
34742;BME280;20968;42.696;23.360;2022-08-02T09:27:21;95162.59;;;29.43;34.88
34742;BME280;20968;42.696;23.360;2022-08-02T09:29:49;95163.59;;;29.08;35.05
34742;BME280;20968;42.696;23.360;2022-08-02T09:32:14;95153.47;;;28.86;35.93
34742;BME280;20968;42.696;23.360;2022-08-02T09:37:21;95160.88;;;29.19;38.10
34742;BME280;20968;42.696;23.360;2022-08-02T09:39:47;95145.38;;;29.50;37.29
34742;BME280;20968;42.696;23.360;2022-08-02T09:42:12;95157.56;;;29.62;35.90
34742;BME280;20968;42.696;23.360;2022-08-02T09:44:39;95158.59;;;29.67;36.50
34742;BME280;20968;42.696;23.360;2022-08-02T09:47:13;95163.34;;;29.74;35.02
34742;BME280;20968;42.696;23.360;2022-08-02T09:49:45;95157.69;;;30.04;34.18
34742;BME280;20968;42.696;23.360;2022-08-02T09:52:11;95149.69;;;30.12;33.96
34742;BME280;20968;42.696;23.360;2022-08-02T09:54:38;95149.81;;;29.63;34.99
34742;BME280;20968;42.696;23.360;2022-08-02T09:57:04;95144.53;;;29.69;35.21
34742;BME280;20968;42.696;23.360;2022-08-02T09:59:29;95136.75;;;29.39;34.77
34742;BME280;20968;42.696;23.360;2022-08-02T10:01:56;95138.91;;;29.59;34.31
34742;BME280;20968;42.696;23.360;2022-08-02T10:04:25;95136.41;;;29.84;34.37
34742;BME280;20968;42.696;23.360;2022-08-02T10:06:52;95137.78;;;30.04;35.89
34742;BME280;20968;42.696;23.360;2022-08-02T10:09:19;95136.56;;;30.28;35.79
34742;BME280;20968;42.696;23.360;2022-08-02T10:11:45;95142.47;;;30.41;35.00
34742;BME280;20968;42.696;23.360;2022-08-02T10:14:11;95136.72;;;30.51;33.86
34742;BME280;20968;42.696;23.360;2022-08-02T10:16:39;95139.34;;;30.37;34.37
34742;BME280;20968;42.696;23.360;2022-08-02T10:19:05;95133.25;;;30.52;34.90
34742;BME280;20968;42.696;23.360;2022-08-02T10:21:44;95136.16;;;30.43;35.53
34742;BME280;20968;42.696;23.360;2022-08-02T10:24:18;95128.66;;;30.47;34.91
34742;BME280;20968;42.696;23.360;2022-08-02T10:26:47;95130.44;;;30.64;33.76
34742;BME280;20968;42.696;23.360;2022-08-02T10:29:18;95130.50;;;30.22;34.09
34742;BME280;20968;42.696;23.360;2022-08-02T10:31:53;95125.72;;;29.94;35.69
34742;BME280;20968;42.696;23.360;2022-08-02T10:34:25;95122.59;;;29.90;34.61
34742;BME280;20968;42.696;23.360;2022-08-02T10:36:53;95126.34;;;29.62;35.02
34742;BME280;20968;42.696;23.360;2022-08-02T10:39:19;95128.88;;;29.37;35.84
34742;BME280;20968;42.696;23.360;2022-08-02T10:41:47;95135.94;;;29.57;35.30
34742;BME280;20968;42.696;23.360;2022-08-02T10:44:21;95125.84;;;29.75;35.66
34742;BME280;20968;42.696;23.360;2022-08-02T10:46:47;95131.59;;;29.56;37.57
34742;BME280;20968;42.696;23.360;2022-08-02T10:49:14;95123.38;;;29.60;35.55
34742;BME280;20968;42.696;23.360;2022-08-02T10:56:56;95105.03;;;29.12;36.98
34742;BME280;20968;42.696;23.360;2022-08-02T10:59:32;95118.53;;;28.74;37.33
34742;BME280;20968;42.696;23.360;2022-08-02T11:02:01;95127.84;;;28.46;38.73
34742;BME280;20968;42.696;23.360;2022-08-02T11:07:17;95115.06;;;29.74;38.21
34742;BME280;20968;42.696;23.360;2022-08-02T11:09:44;95119.25;;;30.03;34.34
34742;BME280;20968;42.696;23.360;2022-08-02T11:12:11;95123.13;;;30.40;34.47
34742;BME280;20968;42.696;23.360;2022-08-02T11:14:42;95113.13;;;30.60;33.94
34742;BME280;20968;42.696;23.360;2022-08-02T11:22:38;95116.25;;;30.01;36.04
34742;BME280;20968;42.696;23.360;2022-08-02T11:27:51;95118.38;;;29.70;36.10
34742;BME280;20968;42.696;23.360;2022-08-02T11:30:18;95118.59;;;29.84;37.17
34742;BME280;20968;42.696;23.360;2022-08-02T11:32:43;95116.53;;;30.05;36.66
34742;BME280;20968;42.696;23.360;2022-08-02T11:35:10;95118.16;;;30.29;34.98
34742;BME280;20968;42.696;23.360;2022-08-02T11:37:37;95117.56;;;30.63;33.69
34742;BME280;20968;42.696;23.360;2022-08-02T11:40:05;95121.72;;;30.50;33.50
34742;BME280;20968;42.696;23.360;2022-08-02T11:42:32;95114.06;;;30.32;34.41
34742;BME280;20968;42.696;23.360;2022-08-02T11:44:58;95110.22;;;30.27;36.23
34742;BME280;20968;42.696;23.360;2022-08-02T11:47:23;95118.19;;;30.61;36.25
34742;BME280;20968;42.696;23.360;2022-08-02T11:49:49;95122.19;;;31.00;34.86
34742;BME280;20968;42.696;23.360;2022-08-02T11:52:14;95116.41;;;31.32;35.20
34742;BME280;20968;42.696;23.360;2022-08-02T11:54:41;95113.34;;;31.74;34.40
34742;BME280;20968;42.696;23.360;2022-08-02T11:57:11;95114.09;;;31.63;32.69
34742;BME280;20968;42.696;23.360;2022-08-02T11:59:38;95116.31;;;31.87;33.47
34742;BME280;20968;42.696;23.360;2022-08-02T12:02:05;95117.75;;;32.23;33.90
34742;BME280;20968;42.696;23.360;2022-08-02T12:04:31;95126.03;;;32.42;32.67
34742;BME280;20968;42.696;23.360;2022-08-02T12:06:58;95113.34;;;32.44;32.61
34742;BME280;20968;42.696;23.360;2022-08-02T12:09:25;95109.22;;;32.59;31.13
34742;BME280;20968;42.696;23.360;2022-08-02T12:11:52;95117.63;;;32.21;30.68
34742;BME280;20968;42.696;23.360;2022-08-02T12:14:17;95120.13;;;32.15;31.07
34742;BME280;20968;42.696;23.360;2022-08-02T12:16:43;95110.16;;;32.39;31.19
34742;BME280;20968;42.696;23.360;2022-08-02T12:19:27;95109.47;;;32.04;31.85
34742;BME280;20968;42.696;23.360;2022-08-02T12:24:42;95115.25;;;32.29;32.06
34742;BME280;20968;42.696;23.360;2022-08-02T12:27:08;95109.09;;;32.57;32.88
34742;BME280;20968;42.696;23.360;2022-08-02T12:29:36;95111.00;;;32.41;31.89
34742;BME280;20968;42.696;23.360;2022-08-02T12:32:02;95113.47;;;32.46;31.28
34742;BME280;20968;42.696;23.360;2022-08-02T12:34:29;95107.09;;;32.59;32.03
34742;BME280;20968;42.696;23.360;2022-08-02T12:37:05;95112.44;;;32.65;31.43
34742;BME280;20968;42.696;23.360;2022-08-02T12:39:36;95117.97;;;32.74;31.15
34742;BME280;20968;42.696;23.360;2022-08-02T12:42:04;95111.38;;;33.08;31.95
34742;BME280;20968;42.696;23.360;2022-08-02T12:44:30;95107.03;;;33.07;29.83
34742;BME280;20968;42.696;23.360;2022-08-02T12:47:06;95103.69;;;32.74;30.11
34742;BME280;20968;42.696;23.360;2022-08-02T12:49:32;95102.56;;;32.79;29.93
34742;BME280;20968;42.696;23.360;2022-08-02T12:51:58;95096.09;;;32.79;29.75
34742;BME280;20968;42.696;23.360;2022-08-02T12:54:29;95097.69;;;33.07;30.74
34742;BME280;20968;42.696;23.360;2022-08-02T12:56:54;95096.03;;;32.90;31.27
34742;BME280;20968;42.696;23.360;2022-08-02T12:59:35;95096.41;;;32.71;32.04
34742;BME280;20968;42.696;23.360;2022-08-02T13:02:03;95092.00;;;32.82;31.77
34742;BME280;20968;42.696;23.360;2022-08-02T13:04:28;95088.88;;;33.03;32.40
34742;BME280;20968;42.696;23.360;2022-08-02T13:06:54;95080.91;;;33.13;31.83
34742;BME280;20968;42.696;23.360;2022-08-02T13:09:19;95079.09;;;33.19;31.66
34742;BME280;20968;42.696;23.360;2022-08-02T13:11:47;95092.97;;;32.86;32.42
34742;BME280;20968;42.696;23.360;2022-08-02T13:14:13;95086.09;;;32.66;32.66
34742;BME280;20968;42.696;23.360;2022-08-02T13:16:39;95088.22;;;32.66;32.00
34742;BME280;20968;42.696;23.360;2022-08-02T13:19:05;95079.91;;;32.34;32.63
34742;BME280;20968;42.696;23.360;2022-08-02T13:21:30;95088.94;;;31.82;32.36
34742;BME280;20968;42.696;23.360;2022-08-02T13:23:55;95087.06;;;31.75;32.89
34742;BME280;20968;42.696;23.360;2022-08-02T13:26:21;95096.00;;;31.59;33.35
34742;BME280;20968;42.696;23.360;2022-08-02T13:28:46;95088.94;;;31.60;34.13
34742;BME280;20968;42.696;23.360;2022-08-02T13:31:12;95082.13;;;31.64;33.69
34742;BME280;20968;42.696;23.360;2022-08-02T13:33:37;95080.31;;;32.17;33.00
34742;BME280;20968;42.696;23.360;2022-08-02T13:36:03;95092.22;;;32.61;33.33